Time;durP1;ratioP1;P1;durP2;ratioP2;P2;SDS_P1;SDS_P2;PMS_P1;PMS_P2;Temp;Humidity;BMP_temperature;BMP_pressure;BME280_temperature;BME280_humidity;BME280_pressure;Samples;Min_cycle;Max_cycle;Signal;HPM_P1;HPM_P2
2023/12/22 00:01:16;;;;;;;49.85;29.13;;;;;;;1.66;62.99;93458.69;5108323;28;20109;-81
2023/12/22 00:03:42;;;;;;;47.72;27.67;;;;;;;1.67;62.93;93441.28;5108178;28;20436;-80
2023/12/22 00:06:08;;;;;;;42.10;26.58;;;;;;;1.66;62.94;93454.03;5106059;28;20533;-80
2023/12/22 00:08:34;;;;;;;41.80;27.10;;;;;;;1.75;62.83;93450.78;5108512;28;20105;-80
2023/12/22 00:10:59;;;;;;;46.22;26.35;;;;;;;1.71;62.83;93440.00;5105592;28;20027;-79
2023/12/22 00:13:25;;;;;;;40.33;25.13;;;;;;;1.72;62.91;93446.19;5108555;28;20161;-79
2023/12/22 00:15:50;;;;;;;42.15;24.90;;;;;;;1.74;62.87;93433.00;5106983;27;20035;-79
2023/12/22 00:18:15;;;;;;;42.00;23.05;;;;;;;1.64;62.94;93418.47;5106866;28;20030;-79
2023/12/22 00:20:41;;;;;;;38.67;22.15;;;;;;;1.78;62.69;93426.34;5107672;28;20020;-78
2023/12/22 00:23:06;;;;;;;31.42;19.95;;;;;;;1.81;62.88;93422.03;5106060;28;20030;-80
2023/12/22 00:25:31;;;;;;;37.03;22.38;;;;;;;1.84;62.69;93424.69;5107994;28;20452;-79
2023/12/22 00:27:57;;;;;;;38.45;21.85;;;;;;;1.84;62.25;93411.13;5106884;28;20106;-79
2023/12/22 00:30:24;;;;;;;35.03;21.58;;;;;;;1.72;62.63;93398.22;5108525;28;20019;-79
2023/12/22 00:32:49;;;;;;;42.13;23.30;;;;;;;1.69;62.99;93399.03;5106418;28;20640;-79
2023/12/22 00:35:14;;;;;;;37.05;21.15;;;;;;;1.76;62.91;93403.53;5108116;28;20111;-79
2023/12/22 00:37:40;;;;;;;33.78;19.20;;;;;;;1.76;62.95;93400.84;5106832;27;20038;-79
2023/12/22 00:40:07;;;;;;;34.95;19.50;;;;;;;1.65;63.20;93398.31;5107498;28;20498;-79
2023/12/22 00:42:33;;;;;;;34.42;18.83;;;;;;;1.66;63.28;93388.25;5106191;28;20099;-79
2023/12/22 00:44:58;;;;;;;35.25;19.35;;;;;;;1.73;63.30;93404.38;5106730;28;20031;-79
2023/12/22 00:47:24;;;;;;;35.70;19.77;;;;;;;1.76;63.06;93392.69;5107911;28;20076;-79
2023/12/22 00:49:49;;;;;;;29.88;18.02;;;;;;;1.81;62.98;93411.94;5106101;28;20036;-78
2023/12/22 00:52:14;;;;;;;34.35;19.23;;;;;;;1.83;62.94;93406.88;5108105;28;20020;-79
2023/12/22 00:54:40;;;;;;;33.33;18.45;;;;;;;1.86;63.07;93402.56;5105710;28;20046;-79
2023/12/22 00:57:05;;;;;;;32.53;17.67;;;;;;;1.88;62.95;93394.00;5107676;28;20037;-80
2023/12/22 00:59:31;;;;;;;36.55;17.77;;;;;;;1.91;62.93;93395.91;5107414;28;20510;-78
2023/12/22 01:01:56;;;;;;;34.33;18.23;;;;;;;1.96;62.78;93395.41;5106862;28;20106;-78
2023/12/22 01:04:21;;;;;;;29.00;16.40;;;;;;;1.96;62.91;93396.19;5107439;28;20132;-79
2023/12/22 01:06:47;;;;;;;30.25;17.88;;;;;;;1.97;62.79;93386.09;5105901;28;20030;-79
2023/12/22 01:09:14;;;;;;;33.22;17.98;;;;;;;2.03;62.80;93392.56;5107769;28;20111;-80
2023/12/22 01:11:40;;;;;;;34.88;18.42;;;;;;;2.05;63.04;93390.16;5105798;28;20023;-79
2023/12/22 01:14:06;;;;;;;29.63;16.83;;;;;;;2.08;62.81;93394.78;5107670;28;20093;-78
2023/12/22 01:16:32;;;;;;;25.67;15.80;;;;;;;2.08;62.69;93384.69;5106617;28;20027;-80
2023/12/22 01:18:57;;;;;;;27.23;16.05;;;;;;;2.08;62.60;93375.78;5106559;28;20422;-79
2023/12/22 01:21:23;;;;;;;22.27;14.10;;;;;;;2.19;62.17;93375.56;5107113;28;20027;-79
2023/12/22 01:23:48;;;;;;;24.63;13.25;;;;;;;2.20;62.02;93383.28;5105755;28;20502;-79
2023/12/22 01:26:14;;;;;;;24.10;13.30;;;;;;;2.21;61.88;93390.22;5106027;28;20020;-79
2023/12/22 01:28:39;;;;;;;22.45;12.73;;;;;;;2.24;61.59;93380.50;5105548;28;20107;-79
2023/12/22 01:31:04;;;;;;;18.90;12.13;;;;;;;2.27;61.49;93379.63;5107388;28;20028;-80
2023/12/22 01:33:30;;;;;;;26.48;12.98;;;;;;;2.32;61.27;93366.34;5106238;28;20024;-79
2023/12/22 01:35:55;;;;;;;23.33;12.70;;;;;;;2.30;61.39;93360.59;5106805;28;20051;-79
2023/12/22 01:38:21;;;;;;;23.27;13.80;;;;;;;2.29;61.41;93350.13;5106528;28;20023;-78
2023/12/22 01:40:46;;;;;;;22.95;14.18;;;;;;;2.30;61.58;93351.69;5106124;28;20023;-79
2023/12/22 01:43:13;;;;;;;27.13;13.93;;;;;;;2.36;61.52;93356.19;5106830;28;20027;-78
2023/12/22 01:45:38;;;;;;;23.90;14.13;;;;;;;2.26;61.51;93326.59;5105394;28;20042;-78
2023/12/22 01:48:04;;;;;;;26.83;14.43;;;;;;;2.38;61.53;93340.25;5107016;28;20450;-78
2023/12/22 01:50:29;;;;;;;24.30;15.60;;;;;;;2.39;61.49;93339.06;5105355;28;20110;-78
2023/12/22 01:52:55;;;;;;;23.77;14.40;;;;;;;2.44;61.43;93353.31;5105339;28;20111;-79
2023/12/22 01:55:20;;;;;;;20.95;13.52;;;;;;;2.37;61.54;93336.00;5105935;28;20031;-79
2023/12/22 01:57:46;;;;;;;23.13;13.57;;;;;;;2.42;61.60;93336.69;5087641;28;20063;-78
2023/12/22 02:00:12;;;;;;;24.80;13.70;;;;;;;2.41;61.57;93338.66;5106481;28;20080;-79
2023/12/22 02:02:38;;;;;;;27.80;14.30;;;;;;;2.42;61.65;93342.88;5104049;28;20430;-77
2023/12/22 02:05:04;;;;;;;23.23;14.57;;;;;;;2.49;61.61;93325.69;5105388;28;20062;-79
2023/12/22 02:07:30;;;;;;;21.50;12.55;;;;;;;2.48;61.67;93335.00;5107976;28;20058;-80
2023/12/22 02:09:56;;;;;;;16.67;9.48;;;;;;;2.47;61.43;93349.75;5110747;28;20034;-78
2023/12/22 02:12:21;;;;;;;17.08;10.02;;;;;;;2.49;61.27;93333.81;5109644;28;20501;-78
2023/12/22 02:14:47;;;;;;;19.27;10.63;;;;;;;2.48;61.25;93316.78;5110195;28;20039;-78
2023/12/22 02:17:22;;;;;;;18.40;9.70;;;;;;;2.53;61.23;93329.06;5109042;28;20443;-78
2023/12/22 02:19:48;;;;;;;17.45;9.82;;;;;;;2.55;60.84;93319.31;5109480;28;20028;-79
2023/12/22 02:22:14;;;;;;;16.27;10.35;;;;;;;2.60;60.76;93321.53;5111103;28;20339;-79
2023/12/22 02:24:40;;;;;;;17.23;10.52;;;;;;;2.59;60.77;93324.66;5107608;28;20074;-78
2023/12/22 02:27:13;;;;;;;18.23;10.50;;;;;;;2.57;60.59;93310.75;5110779;28;20504;-78
2023/12/22 02:29:43;;;;;;;21.50;12.10;;;;;;;2.57;60.54;93318.88;5109514;28;20373;-79
2023/12/22 02:32:12;;;;;;;24.58;12.65;;;;;;;2.52;60.70;93322.88;5108929;28;20144;-78
2023/12/22 02:34:39;;;;;;;33.53;14.18;;;;;;;2.54;60.71;93319.75;5108619;28;20023;-79
2023/12/22 02:37:08;;;;;;;26.40;15.73;;;;;;;2.60;60.46;93335.09;5090771;28;20042;-78
2023/12/22 02:39:33;;;;;;;31.95;17.98;;;;;;;2.54;60.56;93317.03;5109107;28;20110;-79
2023/12/22 02:41:59;;;;;;;34.70;19.42;;;;;;;2.48;60.79;93324.16;5107454;28;20027;-80
2023/12/22 02:44:25;;;;;;;36.97;19.58;;;;;;;2.52;60.92;93324.81;5109323;28;20030;-80
2023/12/22 02:46:51;;;;;;;36.55;19.83;;;;;;;2.47;61.08;93311.78;5107640;28;20365;-78
2023/12/22 02:49:18;;;;;;;36.08;20.95;;;;;;;2.50;61.15;93322.53;5110040;27;20095;-79
2023/12/22 02:51:44;;;;;;;37.95;21.35;;;;;;;2.48;61.38;93302.47;5109664;28;20024;-79
2023/12/22 02:54:09;;;;;;;36.97;21.38;;;;;;;2.46;61.37;93296.66;5107822;28;20410;-80
2023/12/22 02:56:35;;;;;;;38.60;21.20;;;;;;;2.45;61.17;93298.63;5109974;28;20096;-79
2023/12/22 02:59:00;;;;;;;36.38;22.15;;;;;;;2.41;61.40;93292.53;5107017;28;20050;-79
2023/12/22 03:01:25;;;;;;;32.17;19.65;;;;;;;2.42;61.33;93283.22;5110337;27;20477;-79
2023/12/22 03:03:51;;;;;;;31.02;20.65;;;;;;;2.42;61.34;93293.31;5108437;28;20092;-81
2023/12/22 03:06:16;;;;;;;31.48;19.80;;;;;;;2.43;61.34;93289.41;5109971;28;20527;-80
2023/12/22 03:08:41;;;;;;;32.10;19.60;;;;;;;2.37;61.65;93300.00;5108973;28;20371;-80
2023/12/22 03:11:07;;;;;;;30.73;18.77;;;;;;;2.36;61.35;93293.81;5109061;28;20558;-80
2023/12/22 03:13:32;;;;;;;30.70;18.55;;;;;;;2.38;61.52;93298.81;5109321;28;20051;-81
2023/12/22 03:15:57;;;;;;;34.42;20.50;;;;;;;2.40;61.65;93304.56;5107224;28;20257;-80
2023/12/22 03:18:23;;;;;;;38.15;21.30;;;;;;;2.38;61.75;93296.84;5109372;28;20081;-80
2023/12/22 03:20:48;;;;;;;35.92;20.85;;;;;;;2.38;61.91;93301.50;5107947;28;20031;-79
2023/12/22 03:23:13;;;;;;;32.30;21.23;;;;;;;2.39;61.84;93297.59;5109661;27;20028;-79
2023/12/22 03:25:39;;;;;;;37.72;21.73;;;;;;;2.40;61.90;93302.59;5108225;28;20035;-79
2023/12/22 03:28:05;;;;;;;35.58;21.70;;;;;;;2.43;61.86;93306.44;5109235;28;20114;-79
2023/12/22 03:30:30;;;;;;;38.08;21.98;;;;;;;2.30;62.15;93283.91;5107425;28;20023;-79
2023/12/22 03:32:55;;;;;;;39.92;23.05;;;;;;;2.39;62.18;93300.31;5108756;28;20042;-79
2023/12/22 03:35:21;;;;;;;36.28;22.23;;;;;;;2.39;62.30;93303.03;5107832;28;20098;-78
2023/12/22 03:37:46;;;;;;;35.78;21.30;;;;;;;2.41;62.34;93295.25;5107681;28;20498;-80
2023/12/22 03:40:12;;;;;;;34.67;21.02;;;;;;;2.39;62.31;93292.19;5107968;28;20034;-80
2023/12/22 03:42:37;;;;;;;33.67;19.42;;;;;;;2.41;62.24;93289.84;5107538;28;20023;-80
2023/12/22 03:45:03;;;;;;;34.92;19.77;;;;;;;2.39;62.18;93292.19;5108795;28;20122;-79
2023/12/22 03:47:28;;;;;;;30.10;18.08;;;;;;;2.34;62.37;93290.75;5107934;28;20413;-79
2023/12/22 03:49:53;;;;;;;30.52;17.38;;;;;;;2.32;62.40;93287.69;5109240;28;20027;-80
2023/12/22 03:52:19;;;;;;;30.13;18.13;;;;;;;2.40;62.21;93294.47;5109505;27;20062;-79
2023/12/22 03:54:44;;;;;;;28.50;18.23;;;;;;;2.26;62.46;93291.34;5108542;27;20035;-79
2023/12/22 03:57:09;;;;;;;27.08;16.13;;;;;;;2.28;62.72;93297.84;5112600;28;20138;-80
2023/12/22 03:59:35;;;;;;;24.30;15.63;;;;;;;2.29;62.65;93293.19;5110304;27;20024;-78
2023/12/22 04:02:01;;;;;;;29.42;17.17;;;;;;;2.32;62.70;93285.00;5109353;28;20031;-79
2023/12/22 04:04:27;;;;;;;29.80;16.98;;;;;;;2.35;62.72;93294.22;5108047;28;20538;-79
2023/12/22 04:06:53;;;;;;;27.00;16.10;;;;;;;2.39;62.49;93289.47;5108688;28;20032;-78
2023/12/22 04:09:19;;;;;;;30.13;17.38;;;;;;;2.40;62.44;93289.03;5107910;27;20453;-79
2023/12/22 04:11:44;;;;;;;25.38;15.63;;;;;;;2.43;62.54;93284.75;5107727;28;20020;-79
2023/12/22 04:14:09;;;;;;;23.98;15.50;;;;;;;2.51;62.42;93305.06;5108207;28;20502;-79
2023/12/22 04:16:37;;;;;;;22.50;15.77;;;;;;;2.45;62.20;93292.44;5105899;28;20077;-79
2023/12/22 04:19:03;;;;;;;23.15;15.07;;;;;;;2.45;62.30;93298.63;5107221;28;20119;-79
2023/12/22 04:21:28;;;;;;;24.55;15.38;;;;;;;2.52;62.30;93303.09;5107143;28;20122;-78
2023/12/22 04:23:53;;;;;;;29.38;16.17;;;;;;;2.50;62.59;93291.94;5108203;28;20034;-79
2023/12/22 04:26:19;;;;;;;29.33;15.68;;;;;;;2.50;62.86;93283.78;5106090;28;20100;-78
2023/12/22 04:28:44;;;;;;;23.48;15.20;;;;;;;2.53;63.13;93281.00;5107387;28;20051;-79
2023/12/22 04:31:09;;;;;;;28.33;16.48;;;;;;;2.56;63.04;93285.56;5106141;28;20035;-79
2023/12/22 04:33:35;;;;;;;26.27;15.10;;;;;;;2.61;62.85;93282.34;5107276;28;20481;-78
2023/12/22 04:36:00;;;;;;;24.23;14.95;;;;;;;2.64;63.05;93280.75;5108032;28;20106;-79
2023/12/22 04:38:26;;;;;;;27.27;15.73;;;;;;;2.70;62.96;93275.56;5105224;28;20402;-79
2023/12/22 04:40:51;;;;;;;22.42;15.40;;;;;;;2.69;63.04;93274.00;5106784;28;20065;-79
2023/12/22 04:43:16;;;;;;;24.38;15.10;;;;;;;2.69;63.21;93269.34;5106745;28;20062;-79
2023/12/22 04:45:42;;;;;;;24.35;15.30;;;;;;;2.78;63.28;93269.50;5107977;27;20281;-79
2023/12/22 04:48:07;;;;;;;24.33;15.98;;;;;;;2.78;63.61;93264.09;5106786;28;20225;-80
2023/12/22 04:50:32;;;;;;;27.33;15.77;;;;;;;2.75;63.93;93259.50;5107141;28;20035;-79
2023/12/22 04:52:58;;;;;;;22.55;15.25;;;;;;;2.75;63.62;93256.03;5105900;28;20027;-79
2023/12/22 04:55:23;;;;;;;23.48;15.35;;;;;;;2.80;63.63;93267.13;5106519;28;20051;-79
2023/12/22 04:57:49;;;;;;;26.55;16.10;;;;;;;2.84;63.46;93270.53;5107685;28;20054;-79
2023/12/22 05:00:14;;;;;;;23.35;15.10;;;;;;;2.86;63.86;93253.81;5106080;28;20362;-79
2023/12/22 05:02:40;;;;;;;28.05;16.55;;;;;;;2.84;64.09;93253.47;5107852;28;20088;-79
2023/12/22 05:05:08;;;;;;;26.30;16.73;;;;;;;2.90;64.00;93259.91;5106306;28;20480;-79
2023/12/22 05:07:33;;;;;;;33.13;18.48;;;;;;;2.92;64.21;93243.94;5107336;28;20023;-79
2023/12/22 05:09:59;;;;;;;27.83;17.30;;;;;;;2.93;64.28;93240.81;5106775;28;20038;-79
2023/12/22 05:12:24;;;;;;;29.08;17.33;;;;;;;2.92;64.33;93246.66;5106358;28;20055;-79
2023/12/22 05:14:49;;;;;;;24.58;16.63;;;;;;;2.86;64.58;93232.84;5105548;28;20048;-81
2023/12/22 05:17:15;;;;;;;27.55;18.90;;;;;;;2.97;64.54;93246.13;5104266;28;20106;-80
2023/12/22 05:19:40;;;;;;;25.27;15.77;;;;;;;2.99;64.67;93251.16;5107425;28;20027;-79
2023/12/22 05:22:05;;;;;;;23.52;15.23;;;;;;;3.00;64.87;93255.41;5105576;28;20055;-79
2023/12/22 05:24:31;;;;;;;26.08;14.05;;;;;;;3.01;64.84;93254.97;5107056;28;20024;-80
2023/12/22 05:26:56;;;;;;;22.00;12.52;;;;;;;3.11;64.49;93261.31;5106000;28;20028;-80
2023/12/22 05:29:21;;;;;;;19.83;12.23;;;;;;;3.09;64.76;93263.66;5106442;28;20031;-81
2023/12/22 05:31:47;;;;;;;19.98;11.82;;;;;;;3.11;65.00;93261.31;5107321;28;20080;-81
2023/12/22 05:34:12;;;;;;;19.83;11.75;;;;;;;3.27;64.95;93258.53;5106231;28;20055;-80
2023/12/22 05:36:38;;;;;;;15.38;9.15;;;;;;;3.38;65.10;93263.63;5107495;28;20027;-81
2023/12/22 05:39:03;;;;;;;14.27;9.18;;;;;;;3.24;65.41;93251.22;5105489;28;20545;-80
2023/12/22 05:41:28;;;;;;;14.65;9.20;;;;;;;3.23;65.84;93266.00;5106785;28;20027;-79
2023/12/22 05:43:54;;;;;;;13.00;8.90;;;;;;;3.24;65.92;93255.91;5105450;28;20081;-81
2023/12/22 05:46:19;;;;;;;15.77;9.07;;;;;;;3.23;66.03;93259.81;5109108;28;20051;-82
2023/12/22 05:48:44;;;;;;;16.40;9.23;;;;;;;3.21;66.21;93241.22;5089856;28;20028;-81
2023/12/22 05:51:13;;;;;;;15.95;10.25;;;;;;;3.27;66.38;93242.22;5106041;28;20027;-81
2023/12/22 05:53:40;;;;;;;18.40;9.80;;;;;;;3.29;66.13;93248.00;5106833;28;20466;-82
2023/12/22 05:56:17;;;;;;;16.98;10.00;;;;;;;3.31;66.42;93242.88;5104978;28;20035;-82
2023/12/22 05:58:42;;;;;;;17.52;10.63;;;;;;;3.37;66.29;93243.88;5107076;28;20541;-83
2023/12/22 06:01:08;;;;;;;14.18;9.88;;;;;;;3.40;66.20;93240.31;5105600;28;20111;-82
2023/12/22 06:03:33;;;;;;;17.80;10.60;;;;;;;3.42;66.24;93253.44;5106638;28;20413;-82
2023/12/22 06:05:58;;;;;;;18.13;11.10;;;;;;;3.44;66.03;93249.13;5106367;28;20026;-82
2023/12/22 06:08:24;;;;;;;16.98;10.57;;;;;;;3.42;66.25;93251.50;5105789;28;20383;-81
2023/12/22 06:10:49;;;;;;;18.65;11.93;;;;;;;3.44;66.08;93259.97;5103523;28;20032;-81
2023/12/22 06:13:15;;;;;;;20.05;11.85;;;;;;;3.42;66.31;93248.00;5106023;28;20059;-80
2023/12/22 06:15:40;;;;;;;19.50;12.88;;;;;;;3.51;66.46;93247.38;5106705;28;20142;-81
2023/12/22 06:18:06;;;;;;;20.42;11.43;;;;;;;3.51;66.35;93258.25;5103557;28;20028;-81
2023/12/22 06:20:31;;;;;;;17.10;10.77;;;;;;;3.55;66.56;93259.66;5105201;28;20047;-81
2023/12/22 06:22:56;;;;;;;14.65;8.88;;;;;;;3.52;66.70;93257.81;5105665;28;20023;-81
2023/12/22 06:25:22;;;;;;;17.02;9.90;;;;;;;3.54;67.02;93258.13;5105889;28;20036;-79
2023/12/22 06:27:47;;;;;;;18.05;9.80;;;;;;;3.57;66.78;93253.81;5106614;28;20480;-81
2023/12/22 06:30:13;;;;;;;16.30;9.20;;;;;;;3.61;66.82;93260.66;5105527;28;20028;-81
2023/12/22 06:32:40;;;;;;;14.60;9.15;;;;;;;3.66;66.82;93256.63;5106814;28;20027;-82
2023/12/22 06:35:07;;;;;;;14.13;8.40;;;;;;;3.75;66.51;93247.84;5104634;28;20027;-82
2023/12/22 06:37:32;;;;;;;13.27;7.85;;;;;;;3.71;66.42;93243.28;5106591;28;20106;-81
2023/12/22 06:39:58;;;;;;;15.07;6.97;;;;;;;3.86;66.13;93254.50;5103624;28;20500;-81
2023/12/22 06:42:23;;;;;;;11.18;7.18;;;;;;;3.91;66.04;93256.66;5106347;28;20043;-82
2023/12/22 06:44:49;;;;;;;12.48;7.43;;;;;;;3.91;65.98;93256.66;5105677;28;20031;-81
2023/12/22 06:47:14;;;;;;;13.02;7.50;;;;;;;3.89;66.21;93259.03;5105411;28;20028;-81
2023/12/22 06:49:40;;;;;;;12.88;7.18;;;;;;;3.87;66.37;93258.72;5106339;28;20418;-81
2023/12/22 06:52:05;;;;;;;11.02;6.65;;;;;;;3.84;66.73;93273.19;5104806;28;20028;-81
2023/12/22 06:54:30;;;;;;;18.73;11.52;;;;;;;3.79;66.77;93248.50;5110666;28;20055;-81
2023/12/22 06:56:56;;;;;;;22.40;12.05;;;;;;;3.89;66.70;93275.34;5108410;28;20106;-80
2023/12/22 06:59:21;;;;;;;14.73;8.18;;;;;;;3.87;66.58;93275.03;5110060;28;20412;-83
2023/12/22 07:01:46;;;;;;;13.10;6.90;;;;;;;3.70;66.76;93241.75;5109217;27;20036;-80
2023/12/22 07:04:12;;;;;;;12.18;7.75;;;;;;;3.93;66.99;93269.81;5109093;28;20034;-82
2023/12/22 07:06:37;;;;;;;15.15;8.40;;;;;;;3.93;66.77;93261.66;5109489;28;20038;-81
2023/12/22 07:09:11;;;;;;;16.60;9.00;;;;;;;4.00;66.84;93273.06;5108351;28;20119;-81
2023/12/22 07:11:37;;;;;;;11.80;8.18;;;;;;;4.04;67.02;93275.69;5109676;28;20020;-78
2023/12/22 07:14:03;;;;;;;13.45;7.82;;;;;;;4.07;67.07;93279.50;5107660;28;20081;-79
2023/12/22 07:16:28;;;;;;;13.10;7.55;;;;;;;4.08;67.06;93273.66;5109758;27;20027;-79
2023/12/22 07:18:53;;;;;;;12.63;8.65;;;;;;;4.11;67.07;93282.88;5106848;28;20057;-80
2023/12/22 07:21:19;;;;;;;14.68;7.97;;;;;;;4.14;67.06;93292.91;5109485;28;20049;-79
2023/12/22 07:23:44;;;;;;;13.75;8.77;;;;;;;4.14;67.16;93284.75;5107864;28;20409;-81
2023/12/22 07:26:10;;;;;;;14.48;8.55;;;;;;;4.20;67.29;93288.44;5108535;28;20035;-79
2023/12/22 07:28:35;;;;;;;16.13;9.07;;;;;;;4.24;67.33;93292.56;5109482;28;20434;-81
2023/12/22 07:31:01;;;;;;;19.25;10.48;;;;;;;4.27;67.43;93280.06;5107919;28;20029;-80
2023/12/22 07:33:26;;;;;;;16.13;10.13;;;;;;;4.32;67.83;93284.94;5109669;28;20019;-81
2023/12/22 07:35:52;;;;;;;19.65;10.95;;;;;;;4.37;67.57;93298.00;5107750;28;20259;-80
2023/12/22 07:38:17;;;;;;;21.85;11.30;;;;;;;4.37;67.43;93295.28;5109399;28;20061;-80
2023/12/22 07:40:42;;;;;;;20.70;11.82;;;;;;;4.40;67.59;93286.22;5108686;28;20038;-81
2023/12/22 07:43:08;;;;;;;28.02;13.88;;;;;;;4.43;67.63;93282.66;5108504;28;20350;-80
2023/12/22 07:45:34;;;;;;;34.08;15.73;;;;;;;4.50;67.81;93292.53;5109137;28;20043;-81
2023/12/22 07:47:59;;;;;;;31.95;16.05;;;;;;;4.57;67.53;93294.28;5107792;28;20466;-81
2023/12/22 07:50:25;;;;;;;27.15;13.43;;;;;;;4.53;68.04;93288.97;5108414;28;20023;-79
2023/12/22 07:52:50;;;;;;;21.77;12.68;;;;;;;4.59;67.99;93294.59;5107630;28;20024;-80
2023/12/22 07:55:16;;;;;;;21.38;11.55;;;;;;;4.68;68.12;93300.91;5107763;28;20190;-81
2023/12/22 07:57:41;;;;;;;19.63;10.55;;;;;;;4.73;68.17;93305.03;5106740;28;20036;-81
2023/12/22 08:00:09;;;;;;;15.20;9.00;;;;;;;4.76;68.33;93309.63;5108755;28;20444;-80
2023/12/22 08:02:34;;;;;;;14.93;8.63;;;;;;;4.76;68.49;93318.53;5108964;28;20063;-79
2023/12/22 08:05:00;;;;;;;12.60;7.47;;;;;;;4.80;68.30;93323.84;5107896;28;20078;-80
2023/12/22 08:07:25;;;;;;;11.10;6.78;;;;;;;4.79;68.44;93328.53;5107659;28;20080;-80
2023/12/22 08:09:51;;;;;;;11.65;6.90;;;;;;;4.86;68.58;93337.66;5107575;28;20024;-80
2023/12/22 08:12:16;;;;;;;9.13;6.38;;;;;;;4.89;68.63;93345.75;5108794;28;20030;-80
2023/12/22 08:14:41;;;;;;;10.38;6.20;;;;;;;4.91;68.46;93345.28;5107394;28;20112;-80
2023/12/22 08:17:07;;;;;;;12.65;6.18;;;;;;;4.94;68.82;93347.16;5108623;28;20493;-80
2023/12/22 08:19:32;;;;;;;8.52;5.80;;;;;;;4.90;69.16;93352.69;5108160;28;20324;-79
2023/12/22 08:21:58;;;;;;;7.80;5.93;;;;;;;4.89;68.98;93351.19;5108134;28;20030;-81
2023/12/22 08:24:23;;;;;;;9.73;6.47;;;;;;;4.88;69.19;93348.91;5108669;28;20421;-83
2023/12/22 08:26:49;;;;;;;9.30;5.90;;;;;;;4.92;69.17;93341.38;5107655;28;20538;-82
2023/12/22 08:29:15;;;;;;;11.85;6.22;;;;;;;4.95;69.43;93346.69;5108414;28;20693;-86
2023/12/22 08:31:41;;;;;;;12.88;6.85;;;;;;;4.85;69.59;93339.63;5106919;28;20028;-80
2023/12/22 08:34:06;;;;;;;9.77;6.50;;;;;;;4.91;69.58;93359.66;5107471;28;20038;-79
2023/12/22 08:36:32;;;;;;;8.82;6.90;;;;;;;4.99;69.46;93360.22;5107267;28;20023;-86
2023/12/22 08:38:57;;;;;;;10.75;6.60;;;;;;;4.86;69.66;93346.59;5107855;28;20102;-79
2023/12/22 08:41:23;;;;;;;9.82;6.30;;;;;;;5.01;69.88;93350.38;5107848;28;20072;-81
2023/12/22 08:43:48;;;;;;;9.05;6.20;;;;;;;5.06;69.80;93355.28;5107283;28;20031;-81
2023/12/22 08:46:14;;;;;;;12.48;7.47;;;;;;;5.02;69.64;93365.53;5107904;28;20130;-79
2023/12/22 08:48:40;;;;;;;14.23;8.88;;;;;;;5.10;69.75;93357.88;5106939;28;20092;-80
2023/12/22 08:51:05;;;;;;;13.85;7.50;;;;;;;5.08;69.69;93357.56;5109385;28;20031;-82
2023/12/22 08:53:33;;;;;;;11.65;8.20;;;;;;;5.14;69.54;93363.97;5109692;27;20027;-80
2023/12/22 08:56:00;;;;;;;11.77;7.20;;;;;;;5.09;69.33;93361.81;5114638;28;20038;-81
2023/12/22 08:58:26;;;;;;;11.38;6.90;;;;;;;5.05;69.52;93356.50;5114855;28;20023;-80
2023/12/22 09:00:51;;;;;;;12.35;6.90;;;;;;;5.14;69.56;93357.78;5113035;28;20085;-81
2023/12/22 09:03:17;;;;;;;13.20;6.75;;;;;;;5.15;69.51;93367.47;5109009;28;20047;-80
2023/12/22 09:05:42;;;;;;;9.10;6.32;;;;;;;5.22;69.16;93370.72;5107367;28;20047;-82
2023/12/22 09:08:07;;;;;;;13.23;6.60;;;;;;;5.23;69.39;93385.88;5108113;28;20412;-82
2023/12/22 09:10:33;;;;;;;15.75;6.88;;;;;;;5.25;69.17;93379.97;5106273;28;20448;-83
2023/12/22 09:12:58;;;;;;;14.20;6.50;;;;;;;5.19;69.83;93384.47;5107508;28;20104;-81
2023/12/22 09:15:25;;;;;;;22.23;7.55;;;;;;;5.11;70.10;93380.47;5105788;28;20061;-81
2023/12/22 09:17:52;;;;;;;14.60;6.93;;;;;;;5.18;70.27;93388.38;5107117;28;20027;-81
2023/12/22 09:20:18;;;;;;;13.50;8.00;;;;;;;5.24;70.27;93389.34;5106747;28;20024;-80
2023/12/22 09:22:43;;;;;;;16.98;7.32;;;;;;;5.20;70.70;93392.19;5106765;28;20443;-79
2023/12/22 09:25:09;;;;;;;13.63;6.97;;;;;;;5.26;70.36;93389.66;5107009;28;20047;-79
2023/12/22 09:27:34;;;;;;;11.90;7.28;;;;;;;5.27;70.65;93383.75;5106142;28;20422;-80
2023/12/22 09:29:59;;;;;;;11.43;6.53;;;;;;;5.31;70.79;93380.94;5107104;28;20569;-79
2023/12/22 09:32:26;;;;;;;17.50;7.65;;;;;;;5.33;70.69;93381.25;5105690;28;20038;-78
2023/12/22 09:34:52;;;;;;;12.50;7.25;;;;;;;5.36;70.79;93371.44;5107029;28;20031;-79
2023/12/22 09:37:17;;;;;;;13.35;7.35;;;;;;;5.48;70.71;93370.63;5104811;28;20036;-79
2023/12/22 09:39:43;;;;;;;12.90;7.00;;;;;;;5.47;70.51;93358.22;5106603;28;20023;-80
2023/12/22 09:42:08;;;;;;;14.50;8.57;;;;;;;5.53;70.74;93361.91;5106700;28;20563;-80
2023/12/22 09:44:35;;;;;;;11.10;7.00;;;;;;;5.59;70.64;93369.06;5105654;28;20031;-80
2023/12/22 09:47:04;;;;;;;16.35;9.77;;;;;;;5.69;70.64;93369.91;5105386;28;20420;-79
2023/12/22 09:49:29;;;;;;;13.23;8.45;;;;;;;5.73;70.61;93367.03;5105724;28;20027;-79
2023/12/22 09:51:55;;;;;;;13.88;8.23;;;;;;;5.78;71.00;93363.75;5105765;28;20375;-80
2023/12/22 09:54:21;;;;;;;15.85;8.18;;;;;;;5.85;70.56;93369.72;5104244;28;20031;-82
2023/12/22 09:56:47;;;;;;;17.58;11.13;;;;;;;5.91;70.42;93369.94;5106630;28;20503;-84
2023/12/22 09:59:13;;;;;;;16.65;12.05;;;;;;;6.02;70.25;93373.03;5105223;28;20023;-83
2023/12/22 10:01:48;;;;;;;13.90;9.35;;;;;;;6.05;70.15;93369.41;5105782;28;20027;-82
2023/12/22 10:04:14;;;;;;;9.70;7.10;;;;;;;6.09;69.98;93358.38;5105371;28;20031;-86
2023/12/22 10:06:40;;;;;;;19.08;9.20;;;;;;;6.16;69.63;93354.63;5105879;28;20023;-84
2023/12/22 10:09:07;;;;;;;11.43;7.50;;;;;;;6.20;69.54;93347.06;5105431;28;20034;-88
2023/12/22 10:11:33;;;;;;;10.02;5.65;;;;;;;6.26;69.29;93359.69;5105346;28;20083;-84
2023/12/22 10:13:59;;;;;;;12.93;7.53;;;;;;;6.38;69.13;93352.63;5105045;28;20040;-81
2023/12/22 10:16:25;;;;;;;9.32;6.10;;;;;;;6.35;69.09;93342.59;5105383;28;20012;-84
2023/12/22 10:18:51;;;;;;;13.48;7.35;;;;;;;6.32;68.81;93335.31;5104643;28;20566;-82
2023/12/22 10:21:17;;;;;;;15.48;8.40;;;;;;;6.41;68.60;93332.59;5087967;28;20028;-81
2023/12/22 10:23:42;;;;;;;14.38;7.13;;;;;;;6.49;68.18;93325.69;5105213;28;20250;-76
2023/12/22 10:26:11;;;;;;;14.38;7.57;;;;;;;6.81;67.61;93329.09;5106456;28;20067;-77
2023/12/22 10:28:36;;;;;;;17.30;9.10;;;;;;;7.08;66.87;93317.47;5108050;28;20028;-79
2023/12/22 10:31:06;;;;;;;13.60;7.63;;;;;;;7.14;66.89;93319.16;5110507;28;20479;-79
2023/12/22 10:33:32;;;;;;;15.40;8.30;;;;;;;7.27;66.56;93316.28;5110081;28;20031;-77
2023/12/22 10:35:59;;;;;;;15.13;8.43;;;;;;;7.37;66.12;93322.53;5110306;28;20047;-77
2023/12/22 10:38:25;;;;;;;11.13;6.82;;;;;;;7.51;65.62;93305.50;5110360;28;20089;-78
2023/12/22 10:40:50;;;;;;;8.40;5.47;;;;;;;7.66;64.68;93300.19;5109543;28;20032;-78
2023/12/22 10:43:16;;;;;;;8.40;5.25;;;;;;;7.96;64.22;93295.72;5110283;28;20112;-78
2023/12/22 10:45:42;;;;;;;7.65;4.57;;;;;;;8.29;62.88;93279.38;5108978;28;20039;-78
2023/12/22 10:48:08;;;;;;;13.65;6.63;;;;;;;8.86;61.10;93264.97;5108634;28;20016;-78
2023/12/22 10:50:33;;;;;;;10.15;5.60;;;;;;;9.33;60.24;93283.38;5108281;28;20020;-78
2023/12/22 10:52:58;;;;;;;10.25;6.68;;;;;;;9.41;59.78;93281.81;5109812;28;20545;-78
2023/12/22 10:55:24;;;;;;;7.35;5.00;;;;;;;9.53;59.08;93269.06;5109619;28;20027;-80
2023/12/22 10:57:50;;;;;;;8.93;5.43;;;;;;;9.75;58.55;93274.22;5108933;28;20016;-78
2023/12/22 11:00:16;;;;;;;8.55;5.28;;;;;;;9.77;58.46;93275.25;5108508;28;20129;-78
2023/12/22 11:02:43;;;;;;;11.57;6.32;;;;;;;9.95;57.97;93276.31;5108679;28;20023;-78
2023/12/22 11:05:10;;;;;;;7.60;4.55;;;;;;;10.31;56.31;93284.16;5109765;28;20020;-79
2023/12/22 11:07:37;;;;;;;11.73;7.03;;;;;;;10.46;55.62;93264.19;5108999;28;20344;-78
2023/12/22 11:10:06;;;;;;;10.32;4.35;;;;;;;11.06;52.99;93262.78;5109426;28;20032;-79
2023/12/22 11:12:35;;;;;;;7.28;3.97;;;;;;;11.16;53.01;93248.41;5107843;28;20034;-78
2023/12/22 11:15:05;;;;;;;12.77;5.20;;;;;;;11.23;53.56;93243.72;5108657;28;20044;-80
2023/12/22 11:17:32;;;;;;;7.18;4.15;;;;;;;11.57;52.15;93233.88;5109554;27;20525;-79
2023/12/22 11:19:58;;;;;;;17.83;8.30;;;;;;;11.75;51.25;93236.31;5108127;28;20217;-78
2023/12/22 11:22:24;;;;;;;16.05;7.18;;;;;;;11.39;52.30;93235.69;5109590;28;20024;-78